TVS3AM LGKR-LKPR
Flight info
| Callsign | TVS3AM |
|---|---|
| Flight time | N/A |
| Altitude | 36000 |
| Route | OLGAT DCT GONOT DCT CRAYE DCT GISAM DCT SIPAL DCT UNIPA DCT PODET DCT NURMI DCT GAMLI DCT TIVAP DCT BUDEX DCT APRAQ |
| Aircraft | B738/M-SDE2E3FGHIRWXY/LB1 |
Departure
| Time | 2026-05-04 21:49 |
|---|---|
| Airport | Corfu Ioannis Kapodistrias International Airport (LGKR) |
Arrival
| Time | N/A |
|---|---|
| Airport | Václav Havel Airport Prague (LKPR) |
| Time | Latitude | Longitude | Altitude | Speed | Heading |
|---|---|---|---|---|---|
| 2026-05-04 21:21 | 39.60667 | 19.91357 | 17 ft | 0 kts | 78° |
| 2026-05-04 21:40 | 39.60665 | 19.91343 | 17 ft | 4 kts | 79° |
| 2026-05-04 21:41 | 39.60660 | 19.91309 | 17 ft | 4 kts | 77° |
| 2026-05-04 21:41 | 39.60655 | 19.91286 | 19 ft | 4 kts | 70° |
| 2026-05-04 21:41 | 39.60638 | 19.91246 | 20 ft | 4 kts | 44° |
| 2026-05-04 21:41 | 39.60625 | 19.91233 | 20 ft | 4 kts | 14° |
| 2026-05-04 21:42 | 39.60613 | 19.91231 | 20 ft | 1 kts | 358° |
| 2026-05-04 21:42 | 39.60612 | 19.91231 | 20 ft | 0 kts | 358° |
| 2026-05-04 21:45 | 39.60619 | 19.91231 | 21 ft | 6 kts | 358° |
| 2026-05-04 21:45 | 39.60702 | 19.91216 | 17 ft | 15 kts | 348° |
| 2026-05-04 21:45 | 39.60808 | 19.91188 | 17 ft | 15 kts | 348° |
| 2026-05-04 21:45 | 39.60909 | 19.91162 | 17 ft | 15 kts | 348° |
| 2026-05-04 21:46 | 39.61006 | 19.91136 | 18 ft | 14 kts | 348° |
| 2026-05-04 21:46 | 39.61098 | 19.91110 | 19 ft | 13 kts | 348° |
| 2026-05-04 21:46 | 39.61187 | 19.91084 | 20 ft | 13 kts | 341° |
| 2026-05-04 21:46 | 39.61219 | 19.91021 | 20 ft | 7 kts | 273° |
| 2026-05-04 21:47 | 39.61203 | 19.90966 | 21 ft | 7 kts | 218° |
| 2026-05-04 21:47 | 39.61172 | 19.90962 | 20 ft | 0 kts | 169° |
| 2026-05-04 21:48 | 39.61163 | 19.90964 | 20 ft | 13 kts | 169° |
| 2026-05-04 21:48 | 39.60822 | 19.91052 | 20 ft | 86 kts | 169° |
| 2026-05-04 21:48 | 39.60010 | 19.91261 | 22 ft | 148 kts | 169° |
| 2026-05-04 21:48 | 39.58891 | 19.91534 | 380 ft | 171 kts | 170° |
| 2026-05-04 21:49 | 39.57716 | 19.91897 | 1066 ft | 178 kts | 150° |
| 2026-05-04 21:49 | 39.57001 | 19.93157 | 1789 ft | 181 kts | 100° |
| 2026-05-04 21:49 | 39.56920 | 19.94905 | 2102 ft | 208 kts | 103° |
| 2026-05-04 21:49 | 39.56084 | 19.96423 | 2487 ft | 216 kts | 148° |
| 2026-05-04 21:50 | 39.54755 | 19.97390 | 3025 ft | 222 kts | 149° |
| 2026-05-04 21:50 | 39.53450 | 19.98454 | 3584 ft | 228 kts | 147° |
| 2026-05-04 21:50 | 39.52133 | 19.99612 | 4324 ft | 228 kts | 144° |
| 2026-05-04 21:50 | 39.50844 | 20.00812 | 5083 ft | 229 kts | 143° |
| 2026-05-04 21:51 | 39.49569 | 20.02051 | 5796 ft | 230 kts | 142° |
| 2026-05-04 21:51 | 39.48299 | 20.03316 | 6535 ft | 231 kts | 141° |
| 2026-05-04 21:51 | 39.47021 | 20.04604 | 6948 ft | 235 kts | 141° |
| 2026-05-04 21:51 | 39.45726 | 20.05916 | 7131 ft | 239 kts | 141° |
| 2026-05-04 21:52 | 39.44408 | 20.07255 | 7137 ft | 240 kts | 140° |
| 2026-05-04 21:52 | 39.43357 | 20.08961 | 7137 ft | 251 kts | 108° |
| 2026-05-04 21:52 | 39.43209 | 20.11206 | 7149 ft | 256 kts | 76° |
| 2026-05-04 21:52 | 39.43995 | 20.13242 | 7158 ft | 255 kts | 46° |
| 2026-05-04 21:53 | 39.45453 | 20.14469 | 7149 ft | 251 kts | 15° |
| 2026-05-04 21:53 | 39.47164 | 20.14527 | 7134 ft | 248 kts | 344° |
| 2026-05-04 21:53 | 39.48632 | 20.13407 | 7130 ft | 246 kts | 315° |
| 2026-05-04 21:53 | 39.49720 | 20.11671 | 7139 ft | 251 kts | 306° |
| 2026-05-04 21:54 | 39.50713 | 20.09789 | 7149 ft | 256 kts | 304° |
| 2026-05-04 21:54 | 39.51729 | 20.07820 | 7302 ft | 272 kts | 304° |
| 2026-05-04 21:54 | 39.52798 | 20.05761 | 7935 ft | 277 kts | 305° |
| 2026-05-04 21:54 | 39.53870 | 20.03712 | 8886 ft | 269 kts | 306° |
| 2026-05-04 21:55 | 39.54894 | 20.01766 | 10064 ft | 256 kts | 306° |
| 2026-05-04 21:55 | 39.55881 | 19.99900 | 10833 ft | 254 kts | 307° |
| 2026-05-04 21:55 | 39.56887 | 19.98007 | 11499 ft | 257 kts | 307° |
| 2026-05-04 21:55 | 39.57905 | 19.96093 | 12205 ft | 258 kts | 308° |
| 2026-05-04 21:56 | 39.58927 | 19.94172 | 12945 ft | 259 kts | 308° |
| 2026-05-04 21:56 | 39.59954 | 19.92240 | 13692 ft | 261 kts | 309° |
| 2026-05-04 21:56 | 39.60966 | 19.90264 | 14326 ft | 269 kts | 302° |
| 2026-05-04 21:56 | 39.61536 | 19.87818 | 14526 ft | 300 kts | 283° |
| 2026-05-04 21:57 | 39.62007 | 19.85108 | 14689 ft | 315 kts | 297° |
| 2026-05-04 21:57 | 39.63191 | 19.82670 | 14852 ft | 328 kts | 315° |
| 2026-05-04 21:57 | 39.64800 | 19.80452 | 15010 ft | 348 kts | 317° |
| 2026-05-04 21:57 | 39.66534 | 19.78167 | 15326 ft | 360 kts | 317° |
| 2026-05-04 21:58 | 39.68308 | 19.75834 | 15910 ft | 365 kts | 317° |
| 2026-05-04 21:58 | 39.70092 | 19.73470 | 16623 ft | 366 kts | 316° |
| 2026-05-04 21:58 | 39.71873 | 19.71093 | 17284 ft | 369 kts | 316° |
| 2026-05-04 21:58 | 39.73646 | 19.68714 | 17891 ft | 373 kts | 316° |
| 2026-05-04 21:59 | 39.75455 | 19.66276 | 18510 ft | 376 kts | 316° |
| 2026-05-04 21:59 | 39.77277 | 19.63815 | 19062 ft | 379 kts | 316° |
| 2026-05-04 21:59 | 39.79106 | 19.61341 | 19625 ft | 381 kts | 316° |
| 2026-05-04 21:59 | 39.80948 | 19.58849 | 20181 ft | 383 kts | 316° |
| 2026-05-04 22:00 | 39.82801 | 19.56339 | 20726 ft | 386 kts | 316° |
| 2026-05-04 22:00 | 39.84666 | 19.53813 | 21269 ft | 388 kts | 315° |
| 2026-05-04 22:00 | 39.86545 | 19.51275 | 21791 ft | 390 kts | 316° |
| 2026-05-04 22:00 | 39.88444 | 19.48727 | 22300 ft | 393 kts | 316° |
| 2026-05-04 22:01 | 39.90354 | 19.46171 | 22785 ft | 396 kts | 316° |
| 2026-05-04 22:01 | 39.92289 | 19.43578 | 23186 ft | 401 kts | 315° |
| 2026-05-04 22:01 | 39.94234 | 19.40970 | 23641 ft | 404 kts | 315° |
| 2026-05-04 22:01 | 39.96197 | 19.38332 | 24077 ft | 405 kts | 315° |
| 2026-05-04 22:02 | 39.98161 | 19.35689 | 24508 ft | 406 kts | 315° |
| 2026-05-04 22:02 | 40.00132 | 19.33033 | 24918 ft | 408 kts | 315° |
| 2026-05-04 22:02 | 40.02107 | 19.30370 | 25305 ft | 410 kts | 315° |
| 2026-05-04 22:02 | 40.04093 | 19.27689 | 25694 ft | 412 kts | 315° |
| 2026-05-04 22:03 | 40.06092 | 19.24989 | 26077 ft | 414 kts | 315° |
| 2026-05-04 22:03 | 40.08096 | 19.22279 | 26443 ft | 416 kts | 315° |
| 2026-05-04 22:03 | 40.10108 | 19.19556 | 26805 ft | 417 kts | 315° |
| 2026-05-04 22:03 | 40.12127 | 19.16820 | 27158 ft | 419 kts | 315° |
| 2026-05-04 22:04 | 40.14157 | 19.14068 | 27506 ft | 421 kts | 315° |
| 2026-05-04 22:04 | 40.16190 | 19.11308 | 27837 ft | 423 kts | 315° |
| 2026-05-04 22:04 | 40.18240 | 19.08522 | 28099 ft | 427 kts | 315° |
| 2026-05-04 22:04 | 40.20306 | 19.05715 | 28367 ft | 430 kts | 315° |
| 2026-05-04 22:05 | 40.22380 | 19.02892 | 28704 ft | 431 kts | 315° |
| 2026-05-04 22:05 | 40.24509 | 19.00205 | 29031 ft | 431 kts | 323° |
| 2026-05-04 22:05 | 40.27101 | 18.98244 | 29427 ft | 431 kts | 335° |
| 2026-05-04 22:05 | 40.29826 | 18.96649 | 29964 ft | 428 kts | 335° |
| 2026-05-04 22:06 | 40.32536 | 18.95056 | 30409 ft | 425 kts | 335° |
| 2026-05-04 22:06 | 40.35226 | 18.93461 | 30799 ft | 424 kts | 334° |
| 2026-05-04 22:06 | 40.37906 | 18.91855 | 31231 ft | 421 kts | 334° |
| 2026-05-04 22:06 | 40.40561 | 18.90252 | 31686 ft | 417 kts | 334° |
| 2026-05-04 22:07 | 40.43193 | 18.88655 | 32128 ft | 414 kts | 334° |
| 2026-05-04 22:07 | 40.45803 | 18.87066 | 32475 ft | 414 kts | 333° |
| 2026-05-04 22:07 | 40.48410 | 18.85475 | 32823 ft | 413 kts | 333° |
| 2026-05-04 22:07 | 40.51007 | 18.83889 | 33210 ft | 410 kts | 333° |
| 2026-05-04 22:08 | 40.53585 | 18.82314 | 33619 ft | 408 kts | 333° |
| 2026-05-04 22:08 | 40.56120 | 18.80764 | 33997 ft | 406 kts | 333° |
| 2026-05-04 22:08 | 40.58709 | 18.79179 | 34323 ft | 404 kts | 333° |
| 2026-05-04 22:08 | 40.61224 | 18.77639 | 34559 ft | 404 kts | 333° |
| 2026-05-04 22:09 | 40.63773 | 18.76076 | 34828 ft | 404 kts | 333° |
| 2026-05-04 22:09 | 40.66316 | 18.74516 | 35087 ft | 403 kts | 333° |
| 2026-05-04 22:09 | 40.68892 | 18.72933 | 35263 ft | 405 kts | 333° |
| 2026-05-04 22:09 | 40.71414 | 18.71383 | 35437 ft | 406 kts | 333° |
| 2026-05-04 22:10 | 40.73983 | 18.69802 | 35599 ft | 408 kts | 333° |
| 2026-05-04 22:10 | 40.76553 | 18.68220 | 35813 ft | 408 kts | 333° |
| 2026-05-04 22:10 | 40.79119 | 18.66639 | 36077 ft | 406 kts | 333° |
| 2026-05-04 22:11 | 40.84276 | 18.63458 | 36147 ft | 411 kts | 333° |
| 2026-05-04 22:11 | 40.89442 | 18.60266 | 36142 ft | 408 kts | 333° |
| 2026-05-04 22:12 | 40.94573 | 18.57090 | 36139 ft | 406 kts | 333° |
| 2026-05-04 22:12 | 40.99688 | 18.53917 | 36139 ft | 406 kts | 333° |
| 2026-05-04 22:13 | 41.04796 | 18.50744 | 36143 ft | 405 kts | 333° |
| 2026-05-04 22:13 | 41.09904 | 18.47565 | 36143 ft | 406 kts | 333° |
| 2026-05-04 22:14 | 41.15016 | 18.44377 | 36138 ft | 407 kts | 333° |
| 2026-05-04 22:14 | 41.20146 | 18.41175 | 36135 ft | 408 kts | 333° |
| 2026-05-04 22:15 | 41.25109 | 18.37569 | 36137 ft | 407 kts | 323° |
| 2026-05-04 22:15 | 41.29667 | 18.33082 | 36140 ft | 408 kts | 322° |
| 2026-05-04 22:16 | 41.34244 | 18.28584 | 36142 ft | 410 kts | 323° |
| 2026-05-04 22:16 | 41.38819 | 18.24118 | 36142 ft | 411 kts | 323° |
| 2026-05-04 22:17 | 41.43435 | 18.19616 | 36141 ft | 411 kts | 323° |
| 2026-05-04 22:17 | 41.48048 | 18.15107 | 36141 ft | 411 kts | 323° |
| 2026-05-04 22:18 | 41.52692 | 18.10660 | 36137 ft | 411 kts | 325° |
| 2026-05-04 22:18 | 41.57472 | 18.06474 | 36138 ft | 411 kts | 326° |
| 2026-05-04 22:19 | 41.62284 | 18.02282 | 36136 ft | 410 kts | 326° |
| 2026-05-04 22:19 | 41.67020 | 17.98104 | 36137 ft | 410 kts | 325° |
| 2026-05-04 22:20 | 41.71773 | 17.93881 | 36136 ft | 410 kts | 325° |
| 2026-05-04 22:20 | 41.76517 | 17.89655 | 36136 ft | 410 kts | 325° |
| 2026-05-04 22:21 | 41.81256 | 17.85426 | 36134 ft | 410 kts | 325° |
| 2026-05-04 22:21 | 41.86003 | 17.81183 | 36130 ft | 410 kts | 325° |
| 2026-05-04 22:22 | 41.90757 | 17.76934 | 36139 ft | 411 kts | 326° |
| 2026-05-04 22:22 | 41.95918 | 17.73583 | 36135 ft | 413 kts | 336° |
| 2026-05-04 22:23 | 42.01256 | 17.70694 | 36128 ft | 414 kts | 336° |
| 2026-05-04 22:23 | 42.06601 | 17.67776 | 36135 ft | 415 kts | 335° |
| 2026-05-04 22:24 | 42.11916 | 17.64844 | 36137 ft | 415 kts | 335° |
| 2026-05-04 22:24 | 42.17261 | 17.61879 | 36133 ft | 416 kts | 335° |
| 2026-05-04 22:25 | 42.22616 | 17.58901 | 36127 ft | 416 kts | 335° |
| 2026-05-04 22:25 | 42.27976 | 17.55915 | 36135 ft | 417 kts | 335° |
| 2026-05-04 22:26 | 42.33338 | 17.52923 | 36131 ft | 417 kts | 335° |
| 2026-05-04 22:26 | 42.34244 | 17.52417 | 36133 ft | 417 kts | 335° |